createdAt,value
2023-09-08T00:02:23.800Z,19.12
2023-09-08T00:04:54.565Z,22.22
2023-09-08T00:07:25.204Z,16.37
2023-09-08T00:09:56.665Z,16.62
2023-09-08T00:12:27.408Z,17.57
2023-09-08T00:14:58.103Z,15.95
2023-09-08T00:17:28.643Z,16.30
2023-09-08T00:19:59.819Z,18.30
2023-09-08T00:22:30.449Z,21.33
2023-09-08T00:25:01.358Z,19.60
2023-09-08T00:27:33.520Z,19.55
2023-09-08T00:30:06.573Z,17.35
2023-09-08T00:32:38.416Z,20.05
2023-09-08T00:35:09.470Z,16.37
2023-09-08T00:37:42.202Z,14.78
2023-09-08T00:40:13.266Z,17.77
2023-09-08T00:42:47.645Z,17.85
2023-09-08T00:45:18.301Z,20.23
2023-09-08T00:47:48.966Z,17.15
2023-09-08T00:50:20.959Z,17.95
2023-09-08T00:52:52.262Z,23.02
2023-09-08T00:55:25.229Z,20.62
2023-09-08T00:57:55.844Z,24.43
2023-09-08T01:00:26.794Z,23.47
2023-09-08T01:02:58.921Z,16.97
2023-09-08T01:05:29.653Z,18.45
2023-09-08T01:08:02.492Z,23.12
2023-09-08T01:10:33.281Z,20.45
2023-09-08T01:13:04.981Z,19.92
2023-09-08T01:15:35.693Z,16.77
2023-09-08T01:18:06.516Z,18.15
2023-09-08T01:20:52.196Z,18.00
2023-09-08T01:23:51.350Z,16.02
2023-09-08T01:26:27.395Z,16.40
2023-09-08T01:28:59.739Z,18.05
2023-09-08T01:31:30.740Z,19.48
2023-09-08T01:34:06.480Z,15.28
2023-09-08T01:36:37.543Z,16.45
2023-09-08T01:39:08.249Z,15.38
2023-09-08T01:41:38.985Z,17.52
2023-09-08T01:44:11.903Z,16.15
2023-09-08T01:46:42.612Z,14.20
2023-09-08T01:49:13.410Z,18.67
2023-09-08T01:51:46.593Z,21.80
2023-09-08T01:54:17.085Z,23.18
2023-09-08T01:56:47.677Z,20.90
2023-09-08T01:59:18.395Z,20.85
2023-09-08T02:01:48.946Z,20.15
2023-09-08T02:04:21.517Z,19.02
2023-09-08T02:06:52.213Z,26.57
2023-09-08T02:09:25.192Z,17.77
2023-09-08T02:11:57.866Z,17.87
2023-09-08T02:14:30.393Z,18.32
2023-09-08T02:17:00.984Z,15.40
2023-09-08T02:19:33.410Z,16.23
2023-09-08T02:22:03.998Z,19.52
2023-09-08T02:24:34.633Z,20.12
2023-09-08T02:27:06.730Z,20.15
2023-09-08T02:29:38.810Z,23.62
2023-09-08T02:32:09.361Z,18.05
2023-09-08T02:34:43.189Z,20.60
2023-09-08T02:37:16.074Z,22.90
2023-09-08T02:39:46.647Z,22.30
2023-09-08T02:42:17.646Z,18.98
2023-09-08T02:44:48.262Z,22.62
2023-09-08T02:47:19.882Z,23.47
2023-09-08T02:49:50.435Z,22.50
2023-09-08T02:52:22.102Z,27.37
2023-09-08T02:54:54.002Z,19.07
2023-09-08T02:57:24.686Z,21.25
2023-09-08T02:59:57.809Z,23.52
2023-09-08T03:02:31.381Z,22.50
2023-09-08T03:05:04.360Z,16.02
2023-09-08T03:07:36.513Z,11.80
2023-09-08T03:10:10.428Z,12.60
2023-09-08T03:12:42.096Z,11.93
2023-09-08T03:15:14.197Z,12.53
2023-09-08T03:17:48.055Z,12.25
2023-09-08T03:20:18.781Z,13.50
2023-09-08T03:22:49.341Z,14.03
2023-09-08T03:25:20.013Z,12.25
2023-09-08T03:27:50.647Z,12.18
2023-09-08T03:30:21.207Z,14.33
2023-09-08T03:32:51.863Z,13.58
2023-09-08T03:35:22.617Z,12.15
2023-09-08T03:37:53.174Z,13.32
2023-09-08T03:40:23.892Z,13.00
2023-09-08T03:42:54.483Z,12.53
2023-09-08T03:45:25.063Z,13.58
2023-09-08T03:47:55.804Z,15.55
2023-09-08T03:50:26.378Z,13.32
2023-09-08T03:52:57.951Z,13.65
2023-09-08T03:55:29.055Z,12.15
2023-09-08T03:57:59.856Z,14.25
2023-09-08T04:00:30.514Z,14.98
2023-09-08T04:03:01.022Z,12.65
2023-09-08T04:05:31.919Z,14.13
2023-09-08T04:08:02.455Z,15.40
2023-09-08T04:10:34.744Z,17.90
2023-09-08T04:13:05.532Z,14.07
2023-09-08T04:15:36.272Z,16.42
2023-09-08T04:18:08.416Z,17.25
2023-09-08T04:20:41.903Z,15.55
2023-09-08T04:23:12.730Z,14.13
2023-09-08T04:25:44.405Z,16.93
2023-09-08T04:28:16.435Z,16.82
2023-09-08T04:30:48.081Z,16.27
2023-09-08T04:33:19.282Z,15.30
2023-09-08T04:35:51.469Z,17.70
2023-09-08T04:38:24.775Z,13.85
2023-09-08T04:40:55.347Z,16.82
2023-09-08T04:43:26.842Z,15.13
2023-09-08T04:45:59.369Z,13.50
2023-09-08T04:48:31.275Z,13.40
2023-09-08T04:51:02.244Z,14.80
2023-09-08T04:53:34.188Z,15.05
2023-09-08T04:56:06.720Z,16.90
2023-09-08T04:58:39.242Z,16.95
2023-09-08T05:01:10.163Z,15.20
2023-09-08T05:03:40.862Z,14.87
2023-09-08T05:06:11.545Z,14.60
2023-09-08T05:08:42.498Z,16.97
2023-09-08T05:11:13.898Z,15.10
2023-09-08T05:13:45.228Z,13.98
2023-09-08T05:16:15.732Z,13.93
2023-09-08T05:18:46.455Z,13.93
2023-09-08T05:21:17.100Z,15.08
2023-09-08T05:23:48.188Z,12.63
2023-09-08T05:26:20.170Z,13.05
2023-09-08T05:28:53.548Z,12.98
2023-09-08T05:31:26.073Z,13.50
2023-09-08T05:33:57.212Z,12.88
2023-09-08T05:36:30.390Z,15.55
2023-09-08T05:39:02.076Z,14.55
2023-09-08T05:41:34.868Z,12.37
2023-09-08T05:44:06.785Z,15.63
2023-09-08T05:46:37.621Z,13.60
2023-09-08T05:49:10.856Z,15.83
2023-09-08T05:51:41.537Z,15.85
2023-09-08T05:54:12.432Z,12.78
2023-09-08T05:56:44.498Z,13.00
2023-09-08T05:59:15.319Z,13.08
2023-09-08T06:01:49.003Z,12.75
2023-09-08T06:04:19.647Z,13.03
2023-09-08T06:06:50.488Z,12.73
2023-09-08T06:09:22.709Z,13.38
2023-09-08T06:11:54.632Z,13.03
2023-09-08T06:14:26.774Z,14.63
2023-09-08T06:16:59.207Z,13.85
2023-09-08T06:19:29.797Z,15.13
2023-09-08T06:22:01.998Z,15.40
2023-09-08T06:24:34.624Z,14.05
2023-09-08T06:27:05.675Z,16.37
2023-09-08T06:29:37.198Z,15.93
2023-09-08T06:32:10.307Z,14.35
2023-09-08T06:34:41.222Z,14.90
2023-09-08T06:37:15.044Z,16.32
2023-09-08T06:39:45.920Z,15.50
2023-09-08T06:42:16.491Z,15.80
2023-09-08T06:44:47.029Z,16.48
2023-09-08T06:47:17.587Z,15.68
2023-09-08T06:49:48.424Z,15.83
2023-09-08T06:52:19.952Z,16.45
2023-09-08T06:54:50.403Z,14.87
2023-09-08T06:57:22.006Z,16.25
2023-09-08T06:59:55.295Z,16.48
2023-09-08T07:02:30.721Z,17.73
2023-09-08T07:05:05.122Z,15.00
2023-09-08T07:07:37.518Z,13.98
2023-09-08T07:10:10.403Z,17.95
2023-09-08T07:12:40.991Z,15.00
2023-09-08T07:15:13.279Z,14.38
2023-09-08T07:17:43.979Z,15.30
2023-09-08T07:20:15.700Z,16.93
2023-09-08T07:22:48.276Z,14.95
2023-09-08T07:25:21.171Z,16.05
2023-09-08T07:27:53.368Z,17.87
2023-09-08T07:30:24.077Z,17.17
2023-09-08T07:32:54.875Z,15.10
2023-09-08T07:35:25.510Z,16.25
2023-09-08T07:37:57.912Z,13.88
2023-09-08T07:40:28.840Z,14.65
2023-09-08T07:43:00.645Z,14.43
2023-09-08T07:45:35.561Z,14.00
2023-09-08T07:48:08.593Z,13.43
2023-09-08T07:50:39.623Z,15.25
2023-09-08T07:53:10.586Z,14.58
2023-09-08T07:55:42.930Z,14.83
2023-09-08T07:58:14.700Z,12.30
2023-09-08T08:00:45.372Z,12.07
2023-09-08T08:03:18.256Z,13.72
2023-09-08T08:05:49.583Z,11.90
2023-09-08T08:08:20.166Z,17.90
2023-09-08T08:10:53.378Z,11.93
2023-09-08T08:13:24.244Z,10.88
2023-09-08T08:15:56.358Z,12.35
2023-09-08T08:18:27.393Z,11.53
2023-09-08T08:21:01.583Z,17.98
2023-09-08T08:23:33.581Z,10.40
2023-09-08T08:26:05.954Z,13.28
2023-09-08T08:28:37.928Z,16.50
2023-09-08T08:31:08.997Z,10.72
2023-09-08T08:33:39.571Z,12.18
2023-09-08T08:36:10.903Z,11.20
2023-09-08T08:38:43.240Z,9.93
2023-09-08T08:41:14.185Z,10.80
2023-09-08T08:43:46.647Z,12.88
2023-09-08T08:46:21.425Z,9.40
2023-09-08T08:48:55.557Z,60.10
2023-09-08T08:51:27.128Z,10.75
2023-09-08T08:53:57.914Z,14.15
2023-09-08T08:56:28.962Z,10.25
2023-09-08T08:59:05.094Z,11.33
2023-09-08T09:01:37.304Z,12.43
2023-09-08T09:04:08.847Z,13.15
2023-09-08T09:06:43.038Z,12.90
2023-09-08T09:09:14.211Z,13.80
2023-09-08T09:11:44.974Z,10.13
2023-09-08T09:14:21.108Z,9.70
2023-09-08T09:16:52.455Z,9.98
2023-09-08T09:19:29.139Z,11.03
2023-09-08T09:22:01.042Z,13.13
2023-09-08T09:24:42.513Z,10.30
2023-09-08T09:27:15.617Z,13.25
2023-09-08T09:29:48.120Z,9.18
2023-09-08T09:32:22.232Z,11.57
2023-09-08T09:35:14.836Z,13.75
2023-09-08T09:37:48.022Z,11.90
2023-09-08T09:40:20.548Z,14.35
2023-09-08T09:42:52.504Z,12.85
2023-09-08T09:45:29.695Z,10.90
2023-09-08T09:48:00.869Z,9.98
2023-09-08T09:50:36.081Z,13.32
2023-09-08T09:53:15.014Z,9.80
2023-09-08T09:55:46.881Z,10.53
2023-09-08T09:58:17.995Z,11.25
2023-09-08T10:00:50.696Z,10.75
2023-09-08T10:03:22.526Z,12.43
2023-09-08T10:05:53.863Z,9.95
2023-09-08T10:08:27.447Z,9.85
2023-09-08T10:11:01.453Z,12.28
2023-09-08T10:13:37.105Z,9.85
2023-09-08T10:16:10.199Z,11.22
2023-09-08T10:18:45.479Z,9.73
2023-09-08T10:21:19.561Z,10.10
2023-09-08T10:23:55.150Z,10.82
2023-09-08T10:26:29.367Z,9.35
2023-09-08T10:29:03.516Z,10.10
2023-09-08T10:31:34.964Z,13.58
2023-09-08T10:34:07.810Z,11.93
2023-09-08T10:36:39.616Z,9.68
2023-09-08T10:39:32.228Z,9.05
2023-09-08T10:42:21.088Z,8.30
2023-09-08T10:44:54.862Z,9.43
2023-09-08T10:47:27.302Z,9.05
2023-09-08T10:50:01.081Z,9.28
2023-09-08T10:52:34.805Z,9.08
2023-09-08T10:55:07.813Z,9.18
2023-09-08T10:57:39.183Z,9.33
2023-09-08T11:00:14.667Z,10.32
2023-09-08T11:02:54.354Z,8.23
2023-09-08T11:05:25.069Z,11.80
2023-09-08T11:07:57.346Z,8.40
2023-09-08T11:10:27.919Z,9.25
2023-09-08T11:13:01.607Z,10.28
2023-09-08T11:15:34.705Z,8.70
2023-09-08T11:18:09.734Z,11.93
2023-09-08T11:20:41.016Z,9.15
2023-09-08T11:23:12.538Z,8.65
2023-09-08T11:25:44.761Z,9.73
2023-09-08T11:28:17.978Z,9.98
2023-09-08T11:30:52.341Z,10.23
2023-09-08T11:33:29.326Z,8.93
2023-09-08T11:35:59.885Z,8.68
2023-09-08T11:38:32.813Z,8.65
2023-09-08T11:41:09.728Z,9.03
2023-09-08T11:43:40.656Z,9.13
2023-09-08T11:46:12.509Z,11.05
2023-09-08T11:48:43.801Z,7.87
2023-09-08T11:51:16.789Z,9.58
2023-09-08T11:53:48.406Z,8.43
2023-09-08T11:56:18.987Z,9.65
2023-09-08T11:58:53.084Z,8.15
2023-09-08T12:01:24.185Z,8.30
2023-09-08T12:03:56.651Z,8.95
2023-09-08T12:06:31.850Z,9.68
2023-09-08T12:09:05.590Z,9.63
2023-09-08T12:11:38.655Z,9.00
2023-09-08T12:14:11.443Z,8.88
2023-09-08T12:16:46.927Z,10.50
2023-09-08T12:19:33.737Z,8.65
2023-09-08T12:22:08.507Z,7.45
2023-09-08T12:24:50.351Z,8.80
2023-09-08T12:27:23.168Z,7.87
2023-09-08T12:29:58.821Z,10.43
2023-09-08T12:32:32.853Z,12.33
2023-09-08T12:35:07.537Z,8.03
2023-09-08T12:37:41.331Z,8.73
2023-09-08T12:40:13.130Z,8.68
2023-09-08T12:42:47.840Z,7.85
2023-09-08T12:45:17.692Z,8.28
2023-09-08T12:47:48.261Z,9.08
2023-09-08T12:50:21.402Z,7.90
2023-09-08T12:52:52.214Z,7.25
2023-09-08T12:55:23.055Z,10.68
2023-09-08T12:57:58.501Z,8.58
2023-09-08T13:00:31.975Z,8.63
2023-09-08T13:03:04.826Z,8.20
2023-09-08T13:05:37.531Z,8.18
2023-09-08T13:08:08.702Z,7.37
2023-09-08T13:10:42.927Z,8.08
2023-09-08T13:13:14.790Z,8.33
2023-09-08T13:15:50.130Z,7.60
2023-09-08T13:18:23.273Z,9.80
2023-09-08T13:20:53.858Z,13.78
2023-09-08T13:23:28.426Z,10.50
2023-09-08T13:25:59.112Z,7.40
2023-09-08T13:28:29.628Z,8.80
2023-09-08T13:31:01.760Z,7.45
2023-09-08T13:33:32.463Z,7.45
2023-09-08T13:36:03.480Z,7.90
2023-09-08T13:38:34.776Z,8.65
2023-09-08T13:41:06.592Z,7.97
2023-09-08T13:43:43.408Z,8.00
2023-09-08T13:46:13.311Z,9.05
2023-09-08T13:48:46.175Z,6.87
2023-09-08T13:51:21.289Z,7.40
2023-09-08T13:53:54.468Z,9.28
2023-09-08T13:56:27.615Z,7.80
2023-09-08T13:59:03.401Z,7.60
2023-09-08T14:01:40.356Z,8.30
2023-09-08T14:04:10.843Z,7.30
2023-09-08T14:06:50.197Z,9.50
2023-09-08T14:14:26.464Z,8.75
2023-09-08T14:16:58.584Z,6.85
2023-09-08T14:19:29.129Z,6.97
2023-09-08T14:21:59.697Z,7.00
2023-09-08T14:24:30.453Z,8.08
2023-09-08T14:27:02.505Z,8.63
2023-09-08T14:29:38.017Z,7.97
2023-09-08T14:32:08.883Z,8.53
2023-09-08T14:34:39.591Z,7.05
2023-09-08T14:37:11.625Z,7.70
2023-09-08T14:39:42.423Z,8.98
2023-09-08T14:42:13.810Z,7.70
2023-09-08T14:44:44.752Z,7.25
2023-09-08T14:47:15.404Z,9.55
2023-09-08T14:49:45.980Z,9.08
2023-09-08T14:52:19.121Z,8.78
2023-09-08T14:54:49.890Z,7.70
2023-09-08T14:57:21.801Z,7.92
2023-09-08T14:59:54.380Z,9.58
2023-09-08T15:02:26.361Z,8.23
2023-09-08T15:04:57.414Z,8.30
2023-09-08T15:07:29.697Z,8.50
2023-09-08T15:10:03.711Z,7.75
2023-09-08T15:12:34.327Z,6.65
2023-09-08T15:15:05.600Z,7.58
2023-09-08T15:17:36.262Z,8.38
2023-09-08T15:20:07.962Z,10.65
2023-09-08T15:22:39.805Z,8.65
2023-09-08T15:25:12.717Z,8.00
2023-09-08T15:27:43.992Z,7.50
2023-09-08T15:30:18.684Z,8.88
2023-09-08T15:32:49.377Z,7.05
2023-09-08T15:35:21.863Z,7.35
2023-09-08T15:37:55.589Z,7.25
2023-09-08T15:40:27.812Z,8.90
2023-09-08T15:42:58.852Z,7.87
2023-09-08T15:45:30.793Z,9.40
2023-09-08T15:48:03.651Z,8.23
2023-09-08T15:50:34.989Z,8.85
2023-09-08T15:53:05.587Z,7.90
2023-09-08T15:55:37.681Z,8.03
2023-09-08T15:58:11.365Z,7.65
2023-09-08T16:00:43.530Z,7.97
2023-09-08T16:03:16.053Z,9.08
2023-09-08T16:05:54.957Z,9.10
2023-09-08T16:08:24.140Z,9.30
2023-09-08T16:10:55.367Z,7.53
2023-09-08T16:13:26.654Z,10.23
2023-09-08T16:15:57.612Z,8.55
2023-09-08T16:18:28.068Z,9.93
2023-09-08T16:20:58.630Z,9.23
2023-09-08T16:23:29.749Z,9.55
2023-09-08T16:26:00.858Z,8.90
2023-09-08T16:28:32.999Z,9.28
2023-09-08T16:31:15.622Z,8.20
2023-09-08T16:33:48.030Z,8.30
2023-09-08T16:36:18.616Z,8.88
2023-09-08T16:38:49.319Z,8.90
2023-09-08T16:41:20.010Z,10.50
2023-09-08T16:43:50.693Z,10.38
2023-09-08T16:46:21.965Z,9.95
2023-09-08T16:48:52.668Z,9.20
2023-09-08T16:51:24.039Z,8.55
2023-09-08T16:53:56.830Z,8.05
2023-09-08T16:56:27.980Z,8.85
2023-09-08T16:58:58.596Z,8.80
2023-09-08T17:01:29.296Z,8.30
2023-09-08T17:04:00.991Z,9.80
2023-09-08T17:06:32.084Z,9.85
2023-09-08T17:09:04.538Z,8.95
2023-09-08T17:11:36.805Z,8.83
2023-09-08T17:14:07.732Z,8.68
2023-09-08T17:16:40.636Z,9.13
2023-09-08T17:19:12.725Z,9.65
2023-09-08T17:21:46.834Z,8.75
2023-09-08T17:24:18.597Z,9.08
2023-09-08T17:26:50.831Z,9.65
2023-09-08T17:29:25.327Z,9.28
2023-09-08T17:31:58.027Z,11.38
2023-09-08T17:34:29.759Z,11.35
2023-09-08T17:37:06.474Z,10.65
2023-09-08T17:39:37.034Z,11.22
2023-09-08T17:42:07.849Z,12.10
2023-09-08T17:44:38.950Z,11.10
2023-09-08T17:47:12.680Z,11.22
2023-09-08T17:49:44.464Z,12.47
2023-09-08T17:52:15.159Z,11.00
2023-09-08T17:54:47.414Z,11.55
2023-09-08T17:57:19.521Z,11.15
2023-09-08T17:59:50.068Z,11.00
2023-09-08T18:02:20.786Z,13.20
2023-09-08T18:04:51.496Z,12.13
2023-09-08T18:07:24.796Z,11.73
2023-09-08T18:09:57.116Z,10.63
2023-09-08T18:12:27.727Z,11.80
2023-09-08T18:15:01.076Z,11.03
2023-09-08T18:17:32.542Z,11.97
2023-09-08T18:20:05.170Z,12.53
2023-09-08T18:22:35.804Z,11.53
2023-09-08T18:25:06.881Z,12.90
2023-09-08T18:27:40.040Z,12.30
2023-09-08T18:30:11.682Z,14.38
2023-09-08T18:32:46.910Z,14.43
2023-09-08T18:35:17.613Z,13.00
2023-09-08T18:37:48.393Z,12.28
2023-09-08T18:40:20.447Z,12.37
2023-09-08T18:42:51.168Z,11.33
2023-09-08T18:45:23.474Z,12.60
2023-09-08T18:47:55.122Z,15.25
2023-09-08T18:50:26.267Z,19.92
2023-09-08T18:52:57.851Z,12.35
2023-09-08T18:55:34.291Z,12.23
2023-09-08T18:58:08.631Z,11.60
2023-09-08T19:00:49.779Z,12.20
2023-09-08T19:03:23.842Z,12.45
2023-09-08T19:05:55.415Z,14.78
2023-09-08T19:08:26.967Z,16.27
2023-09-08T19:11:01.751Z,16.85
2023-09-08T19:13:50.874Z,12.53
2023-09-08T19:16:19.602Z,12.07
2023-09-08T19:18:54.911Z,12.80
2023-09-08T19:21:29.465Z,13.20
2023-09-08T19:24:00.410Z,11.40
2023-09-08T19:26:36.055Z,15.35
2023-09-08T19:29:09.280Z,11.55
2023-09-08T19:31:42.976Z,12.33
2023-09-08T19:34:20.875Z,11.85
2023-09-08T19:36:53.934Z,13.20
2023-09-08T19:39:27.990Z,10.80
2023-09-08T19:42:01.742Z,11.65
2023-09-08T19:44:35.144Z,11.83
2023-09-08T19:47:09.664Z,12.88
2023-09-08T19:49:43.264Z,11.30
2023-09-08T19:52:20.742Z,10.75
2023-09-08T19:54:56.619Z,12.28
2023-09-08T19:57:31.304Z,12.40
2023-09-08T20:00:04.396Z,12.50
2023-09-08T20:02:35.117Z,12.43
2023-09-08T20:05:06.379Z,10.03
2023-09-08T20:07:40.391Z,12.25
2023-09-08T20:10:12.902Z,12.63
2023-09-08T20:12:50.097Z,11.35
2023-09-08T20:15:28.142Z,12.25
2023-09-08T20:18:01.246Z,11.33
2023-09-08T20:20:32.784Z,13.65
2023-09-08T20:23:06.515Z,14.75
2023-09-08T20:25:37.991Z,11.97
2023-09-08T20:28:10.019Z,12.80
2023-09-08T20:30:42.457Z,13.03
2023-09-08T20:33:13.525Z,11.65
2023-09-08T20:35:46.262Z,15.03
2023-09-08T20:38:22.731Z,11.10
2023-09-08T20:41:01.956Z,12.90
2023-09-08T20:43:35.352Z,12.68
2023-09-08T20:46:10.133Z,14.18
2023-09-08T20:48:41.935Z,12.50
2023-09-08T20:51:19.806Z,13.43
2023-09-08T20:53:51.980Z,11.75
2023-09-08T20:56:26.730Z,14.75
2023-09-08T20:58:58.854Z,13.13
2023-09-08T21:01:31.399Z,12.35
2023-09-08T21:04:06.700Z,16.02
2023-09-08T21:06:37.428Z,13.75
2023-09-08T21:09:11.445Z,13.05
2023-09-08T21:11:42.344Z,14.78
2023-09-08T21:14:14.767Z,15.25
2023-09-08T21:16:45.398Z,13.43
2023-09-08T21:19:20.243Z,15.58
2023-09-08T21:21:51.482Z,15.10
2023-09-08T21:24:25.050Z,15.85
2023-09-08T21:26:57.474Z,15.20
2023-09-08T21:29:29.612Z,17.10
2023-09-08T21:32:01.567Z,15.58
2023-09-08T21:34:37.171Z,15.05
2023-09-08T21:37:08.714Z,16.50
2023-09-08T21:39:41.189Z,13.95
2023-09-08T21:42:17.014Z,12.98
2023-09-08T21:44:49.801Z,14.87
2023-09-08T21:47:24.519Z,16.15
2023-09-08T21:49:55.426Z,17.62
2023-09-08T21:52:37.671Z,15.00
2023-09-08T21:55:00.217Z,14.55
2023-09-08T21:57:33.202Z,14.75
2023-09-08T22:00:08.457Z,14.63
2023-09-08T22:02:42.806Z,13.22
2023-09-08T22:05:13.824Z,14.38
2023-09-08T22:07:46.436Z,15.05
2023-09-08T22:10:18.590Z,16.62
2023-09-08T22:12:53.991Z,15.38
2023-09-08T22:15:25.652Z,15.58
2023-09-08T22:17:56.680Z,15.95
2023-09-08T22:20:31.495Z,13.93
2023-09-08T22:23:01.843Z,15.70
2023-09-08T22:25:35.874Z,17.75
2023-09-08T22:28:09.120Z,15.48
2023-09-08T22:30:47.466Z,14.65
2023-09-08T22:33:21.756Z,15.28
2023-09-08T22:35:54.356Z,13.80
2023-09-08T22:38:24.863Z,14.60
2023-09-08T22:40:57.051Z,16.37
2023-09-08T22:43:30.933Z,13.93
2023-09-08T22:46:05.175Z,14.93
2023-09-08T22:48:39.029Z,15.80
2023-09-08T22:51:11.312Z,13.55
2023-09-08T22:53:42.096Z,13.90
2023-09-08T22:56:15.937Z,14.40
2023-09-08T22:58:46.747Z,16.00
2023-09-08T23:01:23.850Z,14.07
2023-09-08T23:03:51.131Z,14.78
2023-09-08T23:06:22.794Z,15.13
2023-09-08T23:08:58.370Z,18.07
2023-09-08T23:11:30.683Z,12.40
2023-09-08T23:14:02.053Z,13.98
2023-09-08T23:16:34.509Z,14.00
2023-09-08T23:19:08.845Z,13.98
2023-09-08T23:21:42.483Z,13.62
2023-09-08T23:24:14.874Z,15.95
2023-09-08T23:26:52.801Z,14.20
2023-09-08T23:29:25.370Z,12.95
2023-09-08T23:31:59.942Z,14.33
2023-09-08T23:34:34.218Z,14.10
2023-09-08T23:37:07.947Z,14.45
2023-09-08T23:39:42.101Z,14.58
2023-09-08T23:42:12.740Z,14.93
2023-09-08T23:44:43.568Z,13.00
2023-09-08T23:47:15.656Z,13.53
2023-09-08T23:49:48.706Z,14.70
2023-09-08T23:52:19.362Z,13.55
2023-09-08T23:54:50.102Z,14.73
2023-09-08T23:57:20.811Z,15.05
2023-09-08T23:59:52.802Z,14.70
